Isla Martín García, Argentina

1:23 PM ART en Noviembre 21, 2014 (GMT -0300)
san isidro | Change Station
CLOSE
Current Station
Estación meteorológica personal
Location: San Isidro, BUENOS AIRES
Altura: 69 ft
Estaciones meteorológicas cercanas

Alt 69 ft 34.47 °S, 58.52 °W | Updated 3 minutes ago

Overcast
Nublado
67.1 ° F
Sensación térmica 67.1 ° F
N
7.1
Viento Variable Viento desde SSE
Gusts 13.0 mph

Hoy
Alta -- | Baja -- ° F
--% Posibilidad de precipitaciones
Ayer
Alta -- | Baja -- ° F
Precip. -- pul
5:37 AM 7:40 PM
Creciente menguante, 1% visible
Presión 29.89 pul
Visibilidad 6.2 Millas
Nubes Baja 2000 ft
Nublado 10000 ft
Punto de rocío 59 ° F
Humedad 76%
Precipitaciones 0.09 pul
Espesor de la nieve No disponible.
UV 4 de una escala de 12
Polen No disponible.
Calidad del aire No disponible.
Flu Activity No disponible.
METAR SADF 211600Z 09010KT 9999 FEW020 OVC100 19/15 Q1012 RERA

More Conditions Fewer Conditions

Presión 29.89 pul
Visibilidad 6.2 Millas
Nubes Baja 2000 ft
Nublado 10000 ft
Punto de rocío 59 ° F
Humedad 76%
Precipitaciones 0.09 pul
Espesor de la nieve No disponible.
UV 4 de una escala de 12
Polen No disponible.
Calidad del aire No disponible.
Flu Activity No disponible.
METAR SADF 211600Z 09010KT 9999 FEW020 OVC100 19/15 Q1012 RERA

More Conditions Fewer Conditions

10-Day Weather Forecast

Almanac

Astronomía

Nov. 21, 2014 Salida Puesta
Hora real
Crepúsculo civil
Crepúsculo náutico
Crepúsculo astronómico
Luna
Horas de luz
Horas de luz
Tomorrow will be .
, % of the Moon is Illuminated

Extremos de hoy

Máximos del país Bajas del país

Community

WunderPhotos

Upload Photos

1,772,682 ¡fotos cargadas!

WunderBlogs® & News

Nearby

Calidad del aire

  Calidad del aire Índice AQ Contaminante
Not available.

Grosos de nieve

Estación Profundido Altura

Actividad de terremotos

Ciudad Distance Mag. Tiempo y dato
Magnitud mínima muestra es 2,5.

Temperaturas de aguas costeras

Lugar Temperatura

Estaciones meteorológicas cercanas